createdAt,value
2018-02-01T00:01:26.060Z,5.77
2018-02-01T00:03:56.346Z,5.64
2018-02-01T00:06:26.660Z,5.69
2018-02-01T00:08:56.995Z,5.77
2018-02-01T00:11:27.538Z,5.78
2018-02-01T00:13:57.729Z,5.82
2018-02-01T00:16:28.113Z,5.85
2018-02-01T00:18:58.443Z,5.75
2018-02-01T00:21:28.707Z,5.69
2018-02-01T00:23:58.838Z,5.70
2018-02-01T00:26:30.744Z,5.56
2018-02-01T00:29:00.942Z,5.66
2018-02-01T00:31:31.802Z,5.63
2018-02-01T00:34:02.146Z,5.60
2018-02-01T00:36:32.612Z,5.67
2018-02-01T00:39:09.568Z,5.73
2018-02-01T00:41:39.911Z,5.84
2018-02-01T00:44:10.145Z,5.76
2018-02-01T00:46:40.560Z,5.80
2018-02-01T00:49:10.746Z,5.87
2018-02-01T00:51:41.004Z,5.93
2018-02-01T00:54:11.256Z,5.87
2018-02-01T00:56:41.582Z,5.87
2018-02-01T00:59:13.160Z,5.95
2018-02-01T01:01:43.270Z,5.89
2018-02-01T01:04:13.735Z,5.99
2018-02-01T01:06:44.044Z,5.96
2018-02-01T01:09:14.320Z,5.88
2018-02-01T01:11:44.809Z,5.85
2018-02-01T01:14:15.409Z,5.78
2018-02-01T01:16:45.958Z,5.84
2018-02-01T01:19:16.522Z,5.88
2018-02-01T01:21:46.885Z,5.85
2018-02-01T01:24:18.838Z,5.76
2018-02-01T01:26:49.027Z,5.85
2018-02-01T01:29:19.405Z,5.79
2018-02-01T01:31:49.503Z,5.70
2018-02-01T01:34:20.404Z,5.80
2018-02-01T01:36:50.697Z,5.64
2018-02-01T01:39:21.199Z,5.67
2018-02-01T01:41:52.294Z,5.72
2018-02-01T01:44:22.640Z,5.64
2018-02-01T01:46:53.241Z,5.56
2018-02-01T01:49:23.798Z,5.57
2018-02-01T01:51:54.080Z,5.58
2018-02-01T01:54:24.571Z,5.53
2018-02-01T01:56:54.835Z,5.49
2018-02-01T01:59:25.297Z,5.48
2018-02-01T02:01:55.112Z,5.42
2018-02-01T02:04:24.959Z,5.47
2018-02-01T02:06:55.501Z,5.37
2018-02-01T02:09:25.579Z,5.41
2018-02-01T02:11:55.536Z,5.41
2018-02-01T02:14:25.449Z,5.31
2018-02-01T02:16:56.124Z,5.33
2018-02-01T02:19:25.956Z,5.35
2018-02-01T02:21:55.880Z,5.32
2018-02-01T02:24:25.831Z,5.27
2018-02-01T02:26:56.553Z,5.24
2018-02-01T02:29:27.222Z,5.24
2018-02-01T02:31:57.052Z,5.34
2018-02-01T02:34:27.203Z,5.33
2018-02-01T02:36:57.213Z,5.29
2018-02-01T02:39:27.074Z,5.24
2018-02-01T02:41:56.968Z,5.15
2018-02-01T02:44:26.949Z,5.18
2018-02-01T02:46:56.894Z,5.23
2018-02-01T02:49:26.883Z,5.18
2018-02-01T02:51:56.708Z,5.14
2018-02-01T02:54:26.637Z,5.12
2018-02-01T02:56:57.204Z,5.04
2018-02-01T02:59:27.337Z,5.20
2018-02-01T03:01:57.253Z,5.22
2018-02-01T03:04:27.275Z,5.17
2018-02-01T03:06:57.095Z,5.08
2018-02-01T03:09:27.004Z,5.26
2018-02-01T03:11:56.864Z,5.10
2018-02-01T03:14:27.763Z,5.07
2018-02-01T03:16:57.551Z,5.05
2018-02-01T03:19:27.431Z,5.10
2018-02-01T03:21:58.017Z,5.18
2018-02-01T03:24:27.919Z,5.15
2018-02-01T03:26:57.933Z,5.05
2018-02-01T03:29:27.851Z,5.05
2018-02-01T03:31:57.802Z,5.00
2018-02-01T03:34:27.740Z,4.98
2018-02-01T03:36:58.558Z,4.92
2018-02-01T03:39:28.766Z,4.91
2018-02-01T03:41:58.750Z,5.02
2018-02-01T03:44:28.671Z,4.89
2018-02-01T03:46:58.678Z,4.91
2018-02-01T03:49:28.555Z,4.82
2018-02-01T03:51:58.486Z,4.78
2018-02-01T03:54:29.639Z,4.74
2018-02-01T03:57:00.276Z,4.87
2018-02-01T03:59:30.336Z,4.77
2018-02-01T04:02:00.112Z,4.58
2018-02-01T04:04:30.242Z,4.69
2018-02-01T04:07:00.031Z,4.59
2018-02-01T04:09:30.769Z,4.61
2018-02-01T04:12:00.636Z,4.67
2018-02-01T04:14:30.596Z,4.66
2018-02-01T04:17:00.451Z,4.69
2018-02-01T04:19:30.417Z,4.77
2018-02-01T04:22:01.095Z,4.71
2018-02-01T04:24:30.873Z,4.76
2018-02-01T04:27:00.896Z,4.71
2018-02-01T04:29:30.905Z,4.74
2018-02-01T04:32:01.172Z,4.72
2018-02-01T04:34:30.953Z,4.71
2018-02-01T04:37:01.035Z,4.67
2018-02-01T04:39:30.889Z,4.68
2018-02-01T04:42:00.788Z,4.72
2018-02-01T04:44:31.911Z,4.73
2018-02-01T04:47:02.503Z,4.61
2018-02-01T04:49:32.316Z,4.69
2018-02-01T04:52:02.751Z,4.61
2018-02-01T04:54:32.741Z,4.51
2018-02-01T04:57:02.577Z,4.51
2018-02-01T04:59:32.911Z,4.65
2018-02-01T05:02:02.818Z,4.64
2018-02-01T05:04:32.638Z,4.65
2018-02-01T05:07:02.671Z,4.60
2018-02-01T05:09:33.600Z,4.64
2018-02-01T05:12:03.508Z,4.63
2018-02-01T05:14:33.625Z,4.68
2018-02-01T05:17:03.776Z,4.66
2018-02-01T05:19:33.594Z,4.58
2018-02-01T05:22:04.111Z,4.59
2018-02-01T05:24:34.255Z,4.60
2018-02-01T05:27:05.077Z,4.66
2018-02-01T05:29:34.949Z,4.61
2018-02-01T05:32:04.903Z,4.56
2018-02-01T05:34:34.747Z,4.51
2018-02-01T05:37:04.737Z,4.48
2018-02-01T05:39:34.558Z,4.53
2018-02-01T05:42:05.273Z,4.51
2018-02-01T05:44:35.318Z,4.50
2018-02-01T05:47:05.103Z,4.39
2018-02-01T05:49:34.952Z,4.30
2018-02-01T05:52:04.981Z,4.30
2018-02-01T05:54:34.922Z,4.27
2018-02-01T05:57:05.647Z,4.37
2018-02-01T05:59:36.296Z,4.39
2018-02-01T06:02:06.198Z,4.24
2018-02-01T06:04:36.886Z,4.19
2018-02-01T06:07:06.854Z,4.25
2018-02-01T06:09:36.774Z,4.26
2018-02-01T06:12:06.671Z,4.24
2018-02-01T06:14:37.554Z,4.28
2018-02-01T06:17:07.469Z,4.16
2018-02-01T06:19:37.417Z,4.26
2018-02-01T06:22:08.069Z,4.25
2018-02-01T06:24:38.627Z,4.28
2018-02-01T06:27:08.500Z,4.24
2018-02-01T06:29:38.374Z,4.15
2018-02-01T06:32:08.201Z,4.17
2018-02-01T06:34:38.407Z,4.16
2018-02-01T06:37:08.321Z,4.12
2018-02-01T06:39:38.180Z,4.15
2018-02-01T06:42:08.955Z,4.10
2018-02-01T06:44:38.863Z,4.19
2018-02-01T06:47:09.621Z,4.16
2018-02-01T06:49:39.539Z,4.20
2018-02-01T06:52:09.446Z,4.26
2018-02-01T06:54:39.361Z,4.24
2018-02-01T06:57:09.930Z,4.29
2018-02-01T06:59:40.099Z,4.36
2018-02-01T07:02:10.207Z,4.38
2018-02-01T07:04:40.048Z,4.36
2018-02-01T07:07:10.157Z,4.28
2018-02-01T07:09:40.090Z,4.26
2018-02-01T07:12:09.961Z,4.25
2018-02-01T07:14:40.538Z,4.25
2018-02-01T07:17:10.434Z,4.26
2018-02-01T07:19:40.569Z,4.27
2018-02-01T07:22:10.472Z,4.28
2018-02-01T07:24:40.290Z,4.33
2018-02-01T07:27:10.130Z,4.29
2018-02-01T07:29:40.215Z,4.26
2018-02-01T07:32:10.347Z,4.30
2018-02-01T07:34:40.109Z,4.23
2018-02-01T07:37:10.687Z,4.44
2018-02-01T07:39:40.511Z,4.40
2018-02-01T07:42:10.425Z,4.36
2018-02-01T07:44:40.240Z,4.33
2018-02-01T07:47:10.268Z,4.36
2018-02-01T07:49:40.225Z,4.44
2018-02-01T07:52:10.928Z,4.35
2018-02-01T07:54:40.917Z,4.42
2018-02-01T07:57:11.344Z,4.54
2018-02-01T07:59:41.688Z,4.47
2018-02-01T08:02:12.156Z,4.41
2018-02-01T08:04:44.186Z,4.54
2018-02-01T08:07:15.535Z,4.62
2018-02-01T08:09:46.236Z,4.63
2018-02-01T08:12:16.576Z,4.69
2018-02-01T08:14:47.132Z,4.85
2018-02-01T08:17:17.655Z,4.93
2018-02-01T08:19:48.053Z,5.13
2018-02-01T08:22:18.586Z,5.16
2018-02-01T08:24:49.184Z,5.12
2018-02-01T08:27:19.550Z,5.13
2018-02-01T08:29:50.141Z,5.01
2018-02-01T08:32:20.819Z,5.08
2018-02-01T08:34:51.009Z,5.18
2018-02-01T08:37:21.386Z,5.25
2018-02-01T08:39:52.038Z,5.29
2018-02-01T08:42:23.145Z,5.50
2018-02-01T08:44:53.983Z,5.46
2018-02-01T08:47:24.497Z,5.38
2018-02-01T08:49:54.926Z,5.37
2018-02-01T08:52:25.695Z,5.42
2018-02-01T08:54:56.212Z,5.51
2018-02-01T08:57:26.686Z,5.66
2018-02-01T08:59:57.146Z,5.79
2018-02-01T09:02:27.664Z,5.81
2018-02-01T09:04:59.087Z,5.78
2018-02-01T09:07:30.340Z,5.66
2018-02-01T09:10:00.776Z,5.54
2018-02-01T09:12:31.200Z,5.50
2018-02-01T09:15:01.757Z,5.67
2018-02-01T09:17:32.311Z,5.69
2018-02-01T09:20:02.781Z,5.56
2018-02-01T09:22:33.346Z,5.62
2018-02-01T09:25:03.680Z,5.63
2018-02-01T09:27:34.142Z,5.60
2018-02-01T09:30:04.661Z,5.56
2018-02-01T09:32:35.026Z,5.53
2018-02-01T09:35:06.277Z,5.58
2018-02-01T09:37:37.188Z,5.60
2018-02-01T09:40:07.505Z,5.74
2018-02-01T09:42:38.882Z,6.41
2018-02-01T09:45:10.021Z,6.03
2018-02-01T09:47:41.086Z,5.98
2018-02-01T09:50:11.424Z,5.87
2018-02-01T09:52:42.034Z,5.73
2018-02-01T09:55:12.421Z,5.94
2018-02-01T09:57:42.767Z,5.94
2018-02-01T10:00:13.859Z,5.99
2018-02-01T10:02:44.413Z,6.06
2018-02-01T10:05:14.777Z,6.01
2018-02-01T10:07:46.070Z,6.00
2018-02-01T10:10:16.437Z,5.94
2018-02-01T10:12:47.468Z,6.02
2018-02-01T10:15:18.656Z,6.06
2018-02-01T10:17:49.186Z,6.03
2018-02-01T10:20:19.531Z,5.92
2018-02-01T10:22:49.696Z,5.96
2018-02-01T10:25:20.745Z,5.91
2018-02-01T10:27:52.180Z,5.91
2018-02-01T10:30:22.327Z,5.95
2018-02-01T10:32:53.388Z,6.01
2018-02-01T10:35:23.857Z,5.94
2018-02-01T10:37:54.068Z,5.96
2018-02-01T10:40:24.648Z,6.18
2018-02-01T10:42:55.801Z,6.24
2018-02-01T10:45:26.184Z,6.31
2018-02-01T10:47:56.445Z,6.64
2018-02-01T10:50:27.372Z,6.54
2018-02-01T10:52:57.679Z,6.35
2018-02-01T10:55:27.513Z,6.46
2018-02-01T10:57:57.372Z,6.35
2018-02-01T11:00:27.255Z,6.27
2018-02-01T11:02:57.990Z,6.19
2018-02-01T11:05:28.856Z,6.26
2018-02-01T11:07:58.678Z,6.25
2018-02-01T11:10:28.657Z,6.34
2018-02-01T11:12:59.291Z,6.28
2018-02-01T11:15:30.058Z,6.30
2018-02-01T11:18:00.000Z,6.32
2018-02-01T11:20:30.769Z,6.27
2018-02-01T11:23:01.501Z,6.39
2018-02-01T11:25:31.437Z,6.43
2018-02-01T11:28:01.292Z,6.61
2018-02-01T11:30:31.364Z,6.64
2018-02-01T11:33:01.960Z,6.46
2018-02-01T11:35:31.771Z,6.34
2018-02-01T11:38:02.013Z,6.38
2018-02-01T11:40:32.044Z,6.43
2018-02-01T11:43:02.907Z,6.36
2018-02-01T11:45:32.813Z,6.47
2018-02-01T11:48:02.722Z,6.30
2018-02-01T11:50:34.285Z,6.33
2018-02-01T11:53:04.090Z,6.36
2018-02-01T11:55:34.128Z,6.26
2018-02-01T11:58:04.035Z,6.36
2018-02-01T12:00:33.921Z,6.26
2018-02-01T12:03:04.646Z,6.30
2018-02-01T12:05:34.544Z,6.35
2018-02-01T12:08:04.499Z,6.23
2018-02-01T12:10:35.354Z,6.27
2018-02-01T12:13:05.229Z,6.26
2018-02-01T12:15:35.958Z,6.29
2018-02-01T12:18:05.907Z,6.24
2018-02-01T12:20:36.540Z,6.23
2018-02-01T12:23:07.357Z,6.26
2018-02-01T12:25:37.316Z,6.28
2018-02-01T12:28:07.175Z,6.26
2018-02-01T12:30:37.704Z,6.24
2018-02-01T12:33:08.764Z,6.34
2018-02-01T12:35:39.375Z,6.33
2018-02-01T12:38:09.194Z,6.28
2018-02-01T12:40:40.663Z,6.44
2018-02-01T12:43:11.331Z,6.47
2018-02-01T12:45:41.176Z,6.48
2018-02-01T12:48:11.204Z,6.39
2018-02-01T12:50:41.136Z,6.45
2018-02-01T12:53:11.814Z,6.41
2018-02-01T12:55:41.961Z,6.35
2018-02-01T12:58:11.948Z,6.36
2018-02-01T13:00:43.894Z,6.40
2018-02-01T13:03:13.788Z,6.49
2018-02-01T13:05:44.532Z,6.51
2018-02-01T13:08:14.491Z,6.48
2018-02-01T13:10:44.317Z,6.45
2018-02-01T13:13:14.233Z,6.50
2018-02-01T13:15:44.379Z,6.48
2018-02-01T13:18:14.727Z,6.41
2018-02-01T13:20:44.736Z,6.45
2018-02-01T13:23:14.615Z,6.36
2018-02-01T13:25:44.688Z,6.39
2018-02-01T13:28:15.086Z,6.43
2018-02-01T13:30:45.115Z,6.36
2018-02-01T13:33:16.087Z,6.42
2018-02-01T13:35:45.918Z,6.36
2018-02-01T13:38:16.139Z,6.35
2018-02-01T13:40:46.619Z,6.10
2018-02-01T13:43:16.803Z,5.97
2018-02-01T13:45:46.898Z,5.90
2018-02-01T13:48:16.836Z,5.93
2018-02-01T13:50:46.851Z,5.89
2018-02-01T13:53:17.224Z,5.84
2018-02-01T13:55:48.183Z,5.83
2018-02-01T13:58:18.076Z,5.80
2018-02-01T14:00:48.989Z,5.80
2018-02-01T14:03:19.063Z,5.90
2018-02-01T14:05:49.363Z,5.84
2018-02-01T14:08:19.471Z,5.81
2018-02-01T14:10:49.477Z,5.91
2018-02-01T14:13:23.631Z,5.92
2018-02-01T14:15:54.357Z,5.84
2018-02-01T14:18:25.206Z,5.89
2018-02-01T14:20:56.072Z,5.86
2018-02-01T14:23:25.920Z,5.80
2018-02-01T14:25:55.824Z,5.75
2018-02-01T14:28:25.880Z,5.72
2018-02-01T14:30:56.664Z,5.57
2018-02-01T14:33:26.609Z,5.58
2018-02-01T14:35:56.640Z,5.63
2018-02-01T14:38:26.565Z,5.68
2018-02-01T14:40:56.458Z,5.67
2018-02-01T14:43:26.407Z,5.67
2018-02-01T14:45:57.113Z,5.72
2018-02-01T14:48:27.198Z,5.67
2018-02-01T14:50:57.329Z,5.67
2018-02-01T14:53:27.482Z,5.71
2018-02-01T14:55:57.341Z,5.67
2018-02-01T14:58:27.291Z,5.74
2018-02-01T15:00:57.177Z,5.71
2018-02-01T15:03:27.123Z,5.72
2018-02-01T15:05:57.103Z,5.72
2018-02-01T15:08:26.992Z,5.71
2018-02-01T15:10:57.730Z,5.73
2018-02-01T15:13:28.411Z,5.81
2018-02-01T15:15:58.482Z,5.82
2018-02-01T15:18:29.176Z,5.81
2018-02-01T15:20:59.205Z,5.78
2018-02-01T15:23:29.272Z,5.91
2018-02-01T15:25:59.245Z,5.87
2018-02-01T15:28:29.243Z,5.83
2018-02-01T15:30:59.409Z,5.87
2018-02-01T15:33:29.327Z,5.83
2018-02-01T15:35:59.221Z,5.86
2018-02-01T15:38:29.103Z,6.33
2018-02-01T15:40:59.404Z,6.18
2018-02-01T15:43:29.585Z,6.07
2018-02-01T15:45:59.673Z,6.00
2018-02-01T15:48:30.191Z,6.00
2018-02-01T15:51:00.239Z,6.06
2018-02-01T15:53:30.188Z,5.91
2018-02-01T15:56:01.165Z,5.77
2018-02-01T15:58:31.400Z,5.77
2018-02-01T16:01:01.319Z,5.72
2018-02-01T16:03:31.246Z,5.70
2018-02-01T16:06:01.079Z,5.70
2018-02-01T16:08:31.795Z,5.76
2018-02-01T16:11:01.696Z,5.64
2018-02-01T16:13:31.765Z,5.59
2018-02-01T16:16:01.832Z,5.67
2018-02-01T16:18:32.161Z,5.70
2018-02-01T16:21:02.206Z,5.73
2018-02-01T16:23:32.379Z,5.68
2018-02-01T16:26:02.271Z,5.70
2018-02-01T16:28:32.349Z,5.80
2018-02-01T16:31:02.275Z,5.76
2018-02-01T16:33:32.118Z,5.71
2018-02-01T16:36:02.124Z,5.70
2018-02-01T16:38:32.043Z,5.67
2018-02-01T16:41:02.768Z,5.71
2018-02-01T16:43:33.487Z,5.67
2018-02-01T16:46:03.540Z,5.63
2018-02-01T16:48:33.414Z,5.79
2018-02-01T16:51:03.319Z,5.68
2018-02-01T16:53:33.337Z,5.63
2018-02-01T16:56:03.301Z,5.60
2018-02-01T16:58:33.262Z,5.52
2018-02-01T17:01:03.228Z,5.44
2018-02-01T17:03:33.205Z,5.50
2018-02-01T17:06:03.262Z,5.39
2018-02-01T17:08:33.330Z,5.47
2018-02-01T17:11:03.314Z,5.51
2018-02-01T17:13:34.313Z,5.44
2018-02-01T17:16:04.246Z,5.41
2018-02-01T17:18:34.486Z,5.44
2018-02-01T17:21:04.570Z,5.53
2018-02-01T17:23:34.790Z,5.52
2018-02-01T17:26:04.974Z,5.58
2018-02-01T17:28:35.782Z,5.52
2018-02-01T17:31:06.034Z,5.52
2018-02-01T17:33:36.738Z,5.41
2018-02-01T17:36:06.584Z,5.34
2018-02-01T17:38:36.551Z,5.35
2018-02-01T17:41:06.432Z,5.35
2018-02-01T17:43:36.994Z,5.35
2018-02-01T17:46:06.864Z,5.39
2018-02-01T17:48:36.923Z,5.34
2018-02-01T17:51:07.164Z,5.25
2018-02-01T17:53:37.406Z,5.26
2018-02-01T17:56:08.150Z,5.18
2018-02-01T17:58:39.012Z,5.13
2018-02-01T18:01:09.142Z,5.28
2018-02-01T18:03:39.257Z,5.25
2018-02-01T18:06:09.596Z,5.23
2018-02-01T18:08:39.701Z,5.23
2018-02-01T18:11:09.721Z,5.23
2018-02-01T18:13:39.897Z,5.41
2018-02-01T18:16:10.510Z,5.36
2018-02-01T18:18:40.708Z,5.39
2018-02-01T18:21:10.707Z,5.44
2018-02-01T18:23:40.703Z,5.46
2018-02-01T18:26:11.345Z,5.38
2018-02-01T18:28:41.930Z,5.33
2018-02-01T18:31:12.059Z,5.33
2018-02-01T18:33:42.206Z,5.40
2018-02-01T18:36:12.105Z,5.39
2018-02-01T18:38:41.974Z,5.36
2018-02-01T18:41:11.910Z,5.30
2018-02-01T18:43:41.904Z,5.36
2018-02-01T18:46:11.792Z,5.36
2018-02-01T18:48:41.677Z,5.37
2018-02-01T18:51:11.680Z,5.26
2018-02-01T18:53:41.628Z,5.69
2018-02-01T18:56:11.594Z,5.55
2018-02-01T18:58:42.269Z,5.43
2018-02-01T19:01:12.947Z,5.31
2018-02-01T19:03:43.028Z,5.26
2018-02-01T19:06:14.305Z,5.25
2018-02-01T19:08:44.219Z,5.26
2018-02-01T19:11:14.068Z,5.18
2018-02-01T19:13:44.314Z,5.10
2018-02-01T19:16:14.991Z,5.11
2018-02-01T19:18:45.062Z,5.09
2018-02-01T19:21:15.360Z,5.11
2018-02-01T19:23:46.237Z,5.23
2018-02-01T19:26:16.358Z,5.11
2018-02-01T19:28:46.357Z,5.07
2018-02-01T19:31:16.334Z,5.06
2018-02-01T19:33:46.348Z,5.04
2018-02-01T19:36:16.325Z,4.97
2018-02-01T19:38:46.569Z,5.04
2018-02-01T19:41:16.704Z,5.06
2018-02-01T19:43:47.067Z,4.98
2018-02-01T19:46:17.829Z,4.99
2018-02-01T19:48:47.934Z,4.90
2018-02-01T19:51:18.005Z,4.82
2018-02-01T19:53:48.147Z,4.89
2018-02-01T19:56:18.844Z,4.81
2018-02-01T19:58:48.652Z,4.86
2018-02-01T20:01:18.775Z,4.82
2018-02-01T20:03:48.855Z,4.72
2018-02-01T20:06:18.888Z,4.87
2018-02-01T20:08:48.762Z,4.85
2018-02-01T20:11:19.531Z,4.81
2018-02-01T20:13:49.513Z,4.77
2018-02-01T20:16:19.660Z,4.68
2018-02-01T20:18:49.685Z,4.63
2018-02-01T20:21:19.724Z,4.73
2018-02-01T20:23:49.952Z,4.71
2018-02-01T20:26:19.903Z,4.62
2018-02-01T20:28:49.909Z,4.56
2018-02-01T20:31:19.893Z,4.46
2018-02-01T20:33:51.970Z,4.56
2018-02-01T20:36:21.890Z,4.61
2018-02-01T20:38:51.974Z,4.55
2018-02-01T20:41:22.099Z,4.59
2018-02-01T20:43:53.085Z,4.54
2018-02-01T20:46:25.157Z,4.52
2018-02-01T20:48:55.881Z,4.51
2018-02-01T20:51:26.015Z,4.56
2018-02-01T20:53:55.957Z,4.65
2018-02-01T20:56:26.044Z,4.60
2018-02-01T20:58:55.949Z,4.48
2018-02-01T21:01:26.315Z,4.49
2018-02-01T21:03:56.910Z,4.52
2018-02-01T21:06:27.297Z,4.42
2018-02-01T21:08:57.374Z,4.46
2018-02-01T21:11:27.300Z,4.46
2018-02-01T21:13:57.605Z,4.52
2018-02-01T21:16:27.623Z,4.45
2018-02-01T21:18:57.745Z,4.68
2018-02-01T21:21:27.564Z,4.63
2018-02-01T21:23:57.621Z,4.56
2018-02-01T21:26:28.365Z,4.61
2018-02-01T21:28:58.367Z,4.61
2018-02-01T21:31:28.425Z,4.65
2018-02-01T21:33:58.589Z,4.60
2018-02-01T21:36:28.996Z,4.67
2018-02-01T21:38:58.877Z,4.69
2018-02-01T21:41:28.993Z,4.60
2018-02-01T21:43:59.698Z,4.62
2018-02-01T21:46:29.741Z,4.71
2018-02-01T21:49:00.406Z,4.73
2018-02-01T21:51:30.577Z,4.65
2018-02-01T21:54:01.345Z,4.76
2018-02-01T21:56:31.240Z,4.87
2018-02-01T21:59:02.709Z,4.80
2018-02-01T22:01:35.311Z,4.79
2018-02-01T22:04:05.867Z,4.88
2018-02-01T22:06:36.824Z,4.87
2018-02-01T22:09:07.083Z,4.78
2018-02-01T22:11:37.048Z,4.87
2018-02-01T22:14:07.888Z,4.78
2018-02-01T22:16:37.943Z,4.78
2018-02-01T22:19:07.847Z,4.81
2018-02-01T22:21:37.673Z,4.81
2018-02-01T22:24:07.574Z,4.77
2018-02-01T22:26:37.673Z,4.80
2018-02-01T22:29:09.016Z,4.75
2018-02-01T22:31:39.728Z,4.75
2018-02-01T22:34:09.849Z,4.81
2018-02-01T22:36:39.708Z,4.70
2018-02-01T22:39:09.796Z,4.76
2018-02-01T22:41:40.027Z,4.74
2018-02-01T22:44:10.038Z,4.72
2018-02-01T22:46:40.025Z,4.72
2018-02-01T22:49:09.788Z,4.76
2018-02-01T22:51:40.385Z,4.75
2018-02-01T22:54:11.349Z,4.83
2018-02-01T22:56:42.042Z,4.75
2018-02-01T22:59:11.974Z,4.90
2018-02-01T23:01:42.406Z,4.85
2018-02-01T23:04:12.398Z,4.81
2018-02-01T23:06:42.216Z,4.81
2018-02-01T23:09:12.474Z,4.81
2018-02-01T23:11:43.154Z,4.80
2018-02-01T23:14:13.354Z,4.80
2018-02-01T23:16:43.290Z,4.85
2018-02-01T23:19:13.238Z,4.85
2018-02-01T23:21:43.337Z,4.91
2018-02-01T23:24:13.374Z,4.86
2018-02-01T23:26:43.305Z,4.90
2018-02-01T23:29:13.455Z,4.94
2018-02-01T23:31:44.049Z,4.93
2018-02-01T23:34:15.745Z,4.90
2018-02-01T23:36:45.689Z,4.87
2018-02-01T23:39:15.706Z,4.92
2018-02-01T23:41:45.777Z,4.85
2018-02-01T23:44:16.501Z,4.92
2018-02-01T23:46:46.492Z,4.95
2018-02-01T23:49:16.328Z,4.89
2018-02-01T23:51:46.359Z,4.83
2018-02-01T23:54:16.229Z,4.80
2018-02-01T23:56:46.118Z,4.77
2018-02-01T23:59:16.099Z,4.92
